sensor_id;sensor_type;location;lat;lon;timestamp;pressure;altitude;pressure_sealevel;temperature;humidity
6851;BME280;3464;42.728;23.296;2023-11-19T00:01:31;95180.46;;;15.09;39.84
6851;BME280;3464;42.728;23.296;2023-11-19T00:03:58;95190.75;;;14.92;39.91
6851;BME280;3464;42.728;23.296;2023-11-19T00:06:24;95190.74;;;14.44;40.61
6851;BME280;3464;42.728;23.296;2023-11-19T00:08:51;95186.61;;;14.84;40.06
6851;BME280;3464;42.728;23.296;2023-11-19T00:11:18;95189.94;;;15.30;39.35
6851;BME280;3464;42.728;23.296;2023-11-19T00:13:44;95190.30;;;15.36;39.37
6851;BME280;3464;42.728;23.296;2023-11-19T00:16:11;95186.46;;;14.97;39.95
6851;BME280;3464;42.728;23.296;2023-11-19T00:18:38;95180.88;;;15.08;39.52
6851;BME280;3464;42.728;23.296;2023-11-19T00:21:05;95183.05;;;15.03;39.50
6851;BME280;3464;42.728;23.296;2023-11-19T00:23:32;95180.43;;;14.66;39.89
6851;BME280;3464;42.728;23.296;2023-11-19T00:26:03;95183.98;;;14.91;39.36
6851;BME280;3464;42.728;23.296;2023-11-19T00:28:30;95180.95;;;14.52;40.30
6851;BME280;3464;42.728;23.296;2023-11-19T00:30:57;95186.17;;;13.56;41.82
6851;BME280;3464;42.728;23.296;2023-11-19T00:33:23;95182.00;;;14.21;41.04
6851;BME280;3464;42.728;23.296;2023-11-19T00:35:51;95183.67;;;14.29;41.04
6851;BME280;3464;42.728;23.296;2023-11-19T00:38:18;95197.16;;;14.30;40.98
6851;BME280;3464;42.728;23.296;2023-11-19T00:40:44;95194.09;;;14.48;40.62
6851;BME280;3464;42.728;23.296;2023-11-19T00:43:11;95197.49;;;14.43;40.92
6851;BME280;3464;42.728;23.296;2023-11-19T00:45:37;95195.38;;;14.44;40.48
6851;BME280;3464;42.728;23.296;2023-11-19T00:48:04;95195.83;;;14.41;40.80
6851;BME280;3464;42.728;23.296;2023-11-19T00:50:31;95193.78;;;15.25;39.72
6851;BME280;3464;42.728;23.296;2023-11-19T00:52:58;95198.02;;;14.31;41.18
6851;BME280;3464;42.728;23.296;2023-11-19T00:55:24;95197.08;;;14.94;40.02
6851;BME280;3464;42.728;23.296;2023-11-19T00:57:51;95194.52;;;14.97;39.93
6851;BME280;3464;42.728;23.296;2023-11-19T01:00:17;95205.35;;;14.64;40.46
6851;BME280;3464;42.728;23.296;2023-11-19T01:02:45;95188.78;;;14.77;40.54
6851;BME280;3464;42.728;23.296;2023-11-19T01:05:11;95189.99;;;14.28;41.20
6851;BME280;3464;42.728;23.296;2023-11-19T01:07:40;95193.73;;;14.37;41.12
6851;BME280;3464;42.728;23.296;2023-11-19T01:10:07;95186.48;;;14.46;41.04
6851;BME280;3464;42.728;23.296;2023-11-19T01:12:34;95187.16;;;15.12;39.82
6851;BME280;3464;42.728;23.296;2023-11-19T01:15:00;95194.59;;;14.34;41.05
6851;BME280;3464;42.728;23.296;2023-11-19T01:17:27;95190.71;;;14.46;40.78
6851;BME280;3464;42.728;23.296;2023-11-19T01:19:53;95192.56;;;14.25;40.91
6851;BME280;3464;42.728;23.296;2023-11-19T01:22:20;95195.14;;;14.73;40.26
6851;BME280;3464;42.728;23.296;2023-11-19T01:24:47;95199.49;;;13.87;41.73
6851;BME280;3464;42.728;23.296;2023-11-19T01:27:14;95200.95;;;14.32;40.71
6851;BME280;3464;42.728;23.296;2023-11-19T01:29:41;95205.32;;;14.04;41.39
6851;BME280;3464;42.728;23.296;2023-11-19T01:32:07;95203.67;;;13.99;41.42
6851;BME280;3464;42.728;23.296;2023-11-19T01:34:34;95216.17;;;14.27;41.18
6851;BME280;3464;42.728;23.296;2023-11-19T01:37:01;95228.86;;;14.19;40.79
6851;BME280;3464;42.728;23.296;2023-11-19T01:39:27;95225.64;;;13.88;41.31
6851;BME280;3464;42.728;23.296;2023-11-19T01:41:54;95237.94;;;13.75;41.30
6851;BME280;3464;42.728;23.296;2023-11-19T01:44:20;95232.80;;;13.95;41.24
6851;BME280;3464;42.728;23.296;2023-11-19T01:46:47;95234.20;;;14.47;40.29
6851;BME280;3464;42.728;23.296;2023-11-19T01:49:14;95230.11;;;14.82;39.46
6851;BME280;3464;42.728;23.296;2023-11-19T01:51:40;95232.09;;;14.97;39.47
6851;BME280;3464;42.728;23.296;2023-11-19T01:54:07;95245.70;;;14.87;39.46
6851;BME280;3464;42.728;23.296;2023-11-19T01:56:33;95249.11;;;14.85;39.30
6851;BME280;3464;42.728;23.296;2023-11-19T01:59:00;95248.91;;;14.54;39.73
6851;BME280;3464;42.728;23.296;2023-11-19T02:01:27;95248.61;;;14.93;39.32
6851;BME280;3464;42.728;23.296;2023-11-19T02:03:53;95246.62;;;14.09;39.71
6851;BME280;3464;42.728;23.296;2023-11-19T02:06:20;95233.77;;;15.01;38.85
6851;BME280;3464;42.728;23.296;2023-11-19T02:08:46;95229.21;;;14.91;38.76
6851;BME280;3464;42.728;23.296;2023-11-19T02:11:13;95226.10;;;15.50;38.09
6851;BME280;3464;42.728;23.296;2023-11-19T02:13:40;95221.44;;;15.08;38.63
6851;BME280;3464;42.728;23.296;2023-11-19T02:16:07;95229.92;;;14.54;39.07
6851;BME280;3464;42.728;23.296;2023-11-19T02:18:33;95218.92;;;15.07;38.37
6851;BME280;3464;42.728;23.296;2023-11-19T02:21:00;95214.06;;;15.27;38.37
6851;BME280;3464;42.728;23.296;2023-11-19T02:23:27;95214.75;;;15.01;38.69
6851;BME280;3464;42.728;23.296;2023-11-19T02:26:03;95209.92;;;14.10;40.04
6851;BME280;3464;42.728;23.296;2023-11-19T02:28:32;95219.23;;;14.07;40.36
6851;BME280;3464;42.728;23.296;2023-11-19T02:30:58;95212.22;;;14.51;39.57
6851;BME280;3464;42.728;23.296;2023-11-19T02:33:25;95212.83;;;14.23;40.17
6851;BME280;3464;42.728;23.296;2023-11-19T02:35:51;95196.14;;;13.87;40.82
6851;BME280;3464;42.728;23.296;2023-11-19T02:38:19;95190.51;;;14.12;40.36
6851;BME280;3464;42.728;23.296;2023-11-19T02:40:45;95216.02;;;13.71;40.47
6851;BME280;3464;42.728;23.296;2023-11-19T02:43:12;95216.03;;;14.48;39.85
6851;BME280;3464;42.728;23.296;2023-11-19T02:45:39;95208.73;;;13.95;40.47
6851;BME280;3464;42.728;23.296;2023-11-19T02:48:05;95231.12;;;13.93;40.47
6851;BME280;3464;42.728;23.296;2023-11-19T02:50:33;95226.77;;;14.14;40.54
6851;BME280;3464;42.728;23.296;2023-11-19T02:52:59;95226.55;;;14.52;39.72
6851;BME280;3464;42.728;23.296;2023-11-19T02:55:26;95219.26;;;13.98;40.30
6851;BME280;3464;42.728;23.296;2023-11-19T02:57:53;95209.13;;;14.67;39.75
6851;BME280;3464;42.728;23.296;2023-11-19T03:00:20;95210.39;;;14.68;39.38
6851;BME280;3464;42.728;23.296;2023-11-19T03:02:46;95221.91;;;14.53;39.53
6851;BME280;3464;42.728;23.296;2023-11-19T03:05:13;95208.72;;;14.65;39.16
6851;BME280;3464;42.728;23.296;2023-11-19T03:07:41;95215.52;;;14.62;39.25
6851;BME280;3464;42.728;23.296;2023-11-19T03:10:07;95218.50;;;14.59;39.27
6851;BME280;3464;42.728;23.296;2023-11-19T03:12:34;95230.36;;;14.52;39.65
6851;BME280;3464;42.728;23.296;2023-11-19T03:15:00;95235.59;;;14.20;39.92
6851;BME280;3464;42.728;23.296;2023-11-19T03:17:27;95248.47;;;13.79;40.47
6851;BME280;3464;42.728;23.296;2023-11-19T03:19:55;95234.79;;;14.14;40.34
6851;BME280;3464;42.728;23.296;2023-11-19T03:22:21;95246.84;;;13.61;40.53
6851;BME280;3464;42.728;23.296;2023-11-19T03:24:50;95242.58;;;13.77;40.66
6851;BME280;3464;42.728;23.296;2023-11-19T03:27:16;95239.98;;;13.87;40.09
6851;BME280;3464;42.728;23.296;2023-11-19T03:29:42;95249.02;;;14.37;40.00
6851;BME280;3464;42.728;23.296;2023-11-19T03:32:10;95245.78;;;14.10;40.08
6851;BME280;3464;42.728;23.296;2023-11-19T03:34:36;95239.91;;;15.22;38.68
6851;BME280;3464;42.728;23.296;2023-11-19T03:37:03;95238.00;;;14.99;38.76
6851;BME280;3464;42.728;23.296;2023-11-19T03:39:30;95250.91;;;13.98;40.16
6851;BME280;3464;42.728;23.296;2023-11-19T03:41:56;95254.69;;;13.99;40.02
6851;BME280;3464;42.728;23.296;2023-11-19T03:44:23;95259.06;;;14.52;39.53
6851;BME280;3464;42.728;23.296;2023-11-19T03:46:50;95273.55;;;15.42;38.25
6851;BME280;3464;42.728;23.296;2023-11-19T03:49:16;95275.53;;;15.07;38.87
6851;BME280;3464;42.728;23.296;2023-11-19T03:51:45;95286.59;;;15.00;38.34
6851;BME280;3464;42.728;23.296;2023-11-19T03:54:12;95281.27;;;14.75;39.19
6851;BME280;3464;42.728;23.296;2023-11-19T03:56:39;95284.16;;;15.34;38.32
6851;BME280;3464;42.728;23.296;2023-11-19T03:59:07;95281.05;;;15.05;38.49
6851;BME280;3464;42.728;23.296;2023-11-19T04:01:33;95280.65;;;14.42;39.45
6851;BME280;3464;42.728;23.296;2023-11-19T04:04:00;95269.99;;;14.60;38.93
6851;BME280;3464;42.728;23.296;2023-11-19T04:06:27;95282.41;;;14.93;38.68
6851;BME280;3464;42.728;23.296;2023-11-19T04:08:54;95276.56;;;15.34;38.06
6851;BME280;3464;42.728;23.296;2023-11-19T04:11:21;95283.30;;;14.25;39.53
6851;BME280;3464;42.728;23.296;2023-11-19T04:13:47;95296.36;;;14.26;39.92
6851;BME280;3464;42.728;23.296;2023-11-19T04:16:14;95292.68;;;14.76;39.06
6851;BME280;3464;42.728;23.296;2023-11-19T04:18:41;95291.39;;;15.30;38.43
6851;BME280;3464;42.728;23.296;2023-11-19T04:21:07;95288.42;;;16.11;37.25
6851;BME280;3464;42.728;23.296;2023-11-19T04:23:34;95290.11;;;15.32;38.32
6851;BME280;3464;42.728;23.296;2023-11-19T04:26:04;95298.13;;;15.34;38.22
6851;BME280;3464;42.728;23.296;2023-11-19T04:28:30;95288.21;;;15.07;38.58
6851;BME280;3464;42.728;23.296;2023-11-19T04:30:57;95297.87;;;13.49;40.47
6851;BME280;3464;42.728;23.296;2023-11-19T04:33:24;95293.19;;;14.63;39.34
6851;BME280;3464;42.728;23.296;2023-11-19T04:35:50;95297.42;;;14.59;39.26
6851;BME280;3464;42.728;23.296;2023-11-19T04:38:17;95302.31;;;14.10;40.14
6851;BME280;3464;42.728;23.296;2023-11-19T04:40:44;95298.16;;;13.96;40.41
6851;BME280;3464;42.728;23.296;2023-11-19T04:43:10;95301.11;;;13.99;40.09
6851;BME280;3464;42.728;23.296;2023-11-19T04:45:37;95292.97;;;14.29;39.62
6851;BME280;3464;42.728;23.296;2023-11-19T04:48:04;95294.56;;;14.47;39.49
6851;BME280;3464;42.728;23.296;2023-11-19T04:50:30;95303.55;;;14.19;39.54
6851;BME280;3464;42.728;23.296;2023-11-19T04:52:57;95307.38;;;14.05;39.99
6851;BME280;3464;42.728;23.296;2023-11-19T04:55:24;95310.77;;;14.04;40.01
6851;BME280;3464;42.728;23.296;2023-11-19T04:57:50;95300.96;;;14.31;39.43
6851;BME280;3464;42.728;23.296;2023-11-19T05:00:17;95306.11;;;14.12;39.87
6851;BME280;3464;42.728;23.296;2023-11-19T05:02:45;95311.73;;;14.67;39.23
6851;BME280;3464;42.728;23.296;2023-11-19T05:05:12;95320.09;;;13.92;40.06
6851;BME280;3464;42.728;23.296;2023-11-19T05:07:39;95332.20;;;14.35;39.22
6851;BME280;3464;42.728;23.296;2023-11-19T05:10:06;95339.80;;;14.30;39.42
6851;BME280;3464;42.728;23.296;2023-11-19T05:12:35;95335.25;;;14.03;39.89
6851;BME280;3464;42.728;23.296;2023-11-19T05:15:03;95327.04;;;14.51;39.24
6851;BME280;3464;42.728;23.296;2023-11-19T05:17:30;95330.56;;;14.14;39.84
6851;BME280;3464;42.728;23.296;2023-11-19T05:19:57;95322.93;;;14.27;39.67
6851;BME280;3464;42.728;23.296;2023-11-19T05:22:24;95325.62;;;14.76;38.99
6851;BME280;3464;42.728;23.296;2023-11-19T05:24:50;95320.73;;;14.44;39.27
6851;BME280;3464;42.728;23.296;2023-11-19T05:27:17;95321.87;;;14.65;39.11
6851;BME280;3464;42.728;23.296;2023-11-19T05:29:44;95326.84;;;13.95;40.03
6851;BME280;3464;42.728;23.296;2023-11-19T05:32:11;95333.91;;;14.22;39.46
6851;BME280;3464;42.728;23.296;2023-11-19T05:34:37;95328.63;;;14.66;38.91
6851;BME280;3464;42.728;23.296;2023-11-19T05:37:04;95341.90;;;15.02;38.41
6851;BME280;3464;42.728;23.296;2023-11-19T05:39:30;95337.14;;;14.57;38.84
6851;BME280;3464;42.728;23.296;2023-11-19T05:41:57;95340.52;;;15.19;38.29
6851;BME280;3464;42.728;23.296;2023-11-19T05:44:24;95346.75;;;13.58;40.16
6851;BME280;3464;42.728;23.296;2023-11-19T05:46:50;95352.45;;;14.33;39.40
6851;BME280;3464;42.728;23.296;2023-11-19T05:49:17;95351.19;;;14.32;39.32
6851;BME280;3464;42.728;23.296;2023-11-19T05:51:43;95345.84;;;14.83;38.64
6851;BME280;3464;42.728;23.296;2023-11-19T05:54:12;95343.91;;;15.15;38.26
6851;BME280;3464;42.728;23.296;2023-11-19T05:56:39;95353.13;;;15.27;37.87
6851;BME280;3464;42.728;23.296;2023-11-19T05:59:06;95353.63;;;15.68;37.56
6851;BME280;3464;42.728;23.296;2023-11-19T06:01:34;95372.58;;;14.65;38.65
6851;BME280;3464;42.728;23.296;2023-11-19T06:04:00;95366.09;;;14.88;38.41
6851;BME280;3464;42.728;23.296;2023-11-19T06:06:28;95368.41;;;15.20;37.76
6851;BME280;3464;42.728;23.296;2023-11-19T06:08:55;95379.31;;;14.64;38.52
6851;BME280;3464;42.728;23.296;2023-11-19T06:11:22;95370.84;;;14.70;38.56
6851;BME280;3464;42.728;23.296;2023-11-19T06:13:48;95373.01;;;14.60;38.87
6851;BME280;3464;42.728;23.296;2023-11-19T06:16:15;95366.14;;;13.54;40.42
6851;BME280;3464;42.728;23.296;2023-11-19T06:18:42;95371.46;;;14.32;39.48
6851;BME280;3464;42.728;23.296;2023-11-19T06:21:08;95368.81;;;14.53;39.21
6851;BME280;3464;42.728;23.296;2023-11-19T06:23:35;95361.47;;;14.85;38.60
6851;BME280;3464;42.728;23.296;2023-11-19T06:26:01;95364.33;;;15.00;38.41
6851;BME280;3464;42.728;23.296;2023-11-19T06:28:28;95369.53;;;15.38;37.95
6851;BME280;3464;42.728;23.296;2023-11-19T06:30:55;95381.98;;;15.11;37.81
6851;BME280;3464;42.728;23.296;2023-11-19T06:33:21;95371.53;;;14.93;38.25
6851;BME280;3464;42.728;23.296;2023-11-19T06:35:48;95364.53;;;15.29;37.61
6851;BME280;3464;42.728;23.296;2023-11-19T06:38:15;95387.08;;;15.07;38.09
6851;BME280;3464;42.728;23.296;2023-11-19T06:40:44;95383.69;;;14.35;38.70
6851;BME280;3464;42.728;23.296;2023-11-19T06:43:11;95378.92;;;14.60;39.01
6851;BME280;3464;42.728;23.296;2023-11-19T06:45:37;95376.20;;;14.92;38.25
6851;BME280;3464;42.728;23.296;2023-11-19T06:48:04;95375.26;;;15.05;37.96
6851;BME280;3464;42.728;23.296;2023-11-19T06:50:32;95377.06;;;14.87;38.02
6851;BME280;3464;42.728;23.296;2023-11-19T06:52:58;95371.16;;;14.88;38.21
6851;BME280;3464;42.728;23.296;2023-11-19T06:55:26;95382.05;;;14.10;38.82
6851;BME280;3464;42.728;23.296;2023-11-19T06:57:52;95382.42;;;14.28;38.57
6851;BME280;3464;42.728;23.296;2023-11-19T07:00:20;95382.78;;;14.48;38.63
6851;BME280;3464;42.728;23.296;2023-11-19T07:02:47;95397.75;;;13.63;39.48
6851;BME280;3464;42.728;23.296;2023-11-19T07:05:14;95380.74;;;14.30;39.02
6851;BME280;3464;42.728;23.296;2023-11-19T07:07:41;95381.09;;;14.46;38.54
6851;BME280;3464;42.728;23.296;2023-11-19T07:10:08;95388.83;;;14.03;39.25
6851;BME280;3464;42.728;23.296;2023-11-19T07:12:35;95390.88;;;14.22;38.99
6851;BME280;3464;42.728;23.296;2023-11-19T07:15:02;95389.19;;;14.17;38.63
6851;BME280;3464;42.728;23.296;2023-11-19T07:17:30;95388.75;;;14.35;38.64
6851;BME280;3464;42.728;23.296;2023-11-19T07:19:55;95386.69;;;14.08;38.69
6851;BME280;3464;42.728;23.296;2023-11-19T07:22:23;95384.70;;;13.63;39.52
6851;BME280;3464;42.728;23.296;2023-11-19T07:24:49;95374.08;;;13.89;39.57
6851;BME280;3464;42.728;23.296;2023-11-19T07:27:16;95385.09;;;13.76;39.18
6851;BME280;3464;42.728;23.296;2023-11-19T07:29:43;95388.36;;;14.18;38.92
6851;BME280;3464;42.728;23.296;2023-11-19T07:32:10;95394.98;;;14.52;38.40
6851;BME280;3464;42.728;23.296;2023-11-19T07:34:37;95400.46;;;14.60;37.94
6851;BME280;3464;42.728;23.296;2023-11-19T07:37:04;95408.30;;;14.92;38.11
6851;BME280;3464;42.728;23.296;2023-11-19T07:39:30;95401.52;;;14.99;37.71
6851;BME280;3464;42.728;23.296;2023-11-19T07:41:57;95410.70;;;14.29;38.56
6851;BME280;3464;42.728;23.296;2023-11-19T07:44:24;95414.78;;;15.39;37.29
6851;BME280;3464;42.728;23.296;2023-11-19T07:46:51;95406.10;;;14.24;38.37
6851;BME280;3464;42.728;23.296;2023-11-19T07:49:17;95408.25;;;15.03;37.44
6851;BME280;3464;42.728;23.296;2023-11-19T07:51:44;95417.67;;;14.79;37.66
6851;BME280;3464;42.728;23.296;2023-11-19T07:54:11;95410.30;;;15.08;37.38
6851;BME280;3464;42.728;23.296;2023-11-19T07:56:38;95419.33;;;14.86;37.65
6851;BME280;3464;42.728;23.296;2023-11-19T07:59:05;95410.78;;;15.62;36.56
6851;BME280;3464;42.728;23.296;2023-11-19T08:01:31;95412.45;;;15.63;36.63
6851;BME280;3464;42.728;23.296;2023-11-19T08:03:58;95427.80;;;14.82;37.68
6851;BME280;3464;42.728;23.296;2023-11-19T08:06:24;95427.19;;;15.12;37.48
6851;BME280;3464;42.728;23.296;2023-11-19T08:08:51;95426.21;;;15.34;36.98
6851;BME280;3464;42.728;23.296;2023-11-19T08:11:18;95414.63;;;15.58;36.30
6851;BME280;3464;42.728;23.296;2023-11-19T08:13:45;95426.67;;;15.26;37.32
6851;BME280;3464;42.728;23.296;2023-11-19T08:16:11;95436.78;;;15.87;36.33
6851;BME280;3464;42.728;23.296;2023-11-19T08:18:38;95421.31;;;16.52;35.28
6851;BME280;3464;42.728;23.296;2023-11-19T08:21:06;95421.33;;;15.63;35.86
6851;BME280;3464;42.728;23.296;2023-11-19T08:23:34;95425.36;;;15.33;36.61
6851;BME280;3464;42.728;23.296;2023-11-19T08:26:01;95427.00;;;15.93;36.20
6851;BME280;3464;42.728;23.296;2023-11-19T08:28:28;95426.34;;;15.73;36.05
6851;BME280;3464;42.728;23.296;2023-11-19T08:30:55;95433.23;;;16.05;35.87
6851;BME280;3464;42.728;23.296;2023-11-19T08:33:21;95433.86;;;15.83;36.20
6851;BME280;3464;42.728;23.296;2023-11-19T08:35:48;95439.94;;;15.65;36.10
6851;BME280;3464;42.728;23.296;2023-11-19T08:38:15;95451.75;;;15.04;36.77
6851;BME280;3464;42.728;23.296;2023-11-19T08:40:42;95459.77;;;15.03;37.08
6851;BME280;3464;42.728;23.296;2023-11-19T08:43:09;95444.56;;;15.70;36.29
6851;BME280;3464;42.728;23.296;2023-11-19T08:45:36;95446.19;;;15.18;36.83
6851;BME280;3464;42.728;23.296;2023-11-19T08:48:03;95446.11;;;15.25;36.71
6851;BME280;3464;42.728;23.296;2023-11-19T08:50:29;95442.81;;;15.12;36.70
6851;BME280;3464;42.728;23.296;2023-11-19T08:52:56;95453.84;;;15.71;36.10
6851;BME280;3464;42.728;23.296;2023-11-19T08:55:25;95464.28;;;15.27;36.65
6851;BME280;3464;42.728;23.296;2023-11-19T08:57:55;95457.32;;;14.91;36.75
6851;BME280;3464;42.728;23.296;2023-11-19T09:00:28;95463.08;;;15.15;36.25
6851;BME280;3464;42.728;23.296;2023-11-19T09:02:56;95448.73;;;15.75;35.86
6851;BME280;3464;42.728;23.296;2023-11-19T09:05:23;95441.91;;;15.24;36.33
6851;BME280;3464;42.728;23.296;2023-11-19T09:07:51;95448.81;;;16.14;35.30
6851;BME280;3464;42.728;23.296;2023-11-19T09:10:20;95439.39;;;16.25;34.99
6851;BME280;3464;42.728;23.296;2023-11-19T09:12:50;95438.02;;;16.73;34.58
6851;BME280;3464;42.728;23.296;2023-11-19T09:15:18;95429.48;;;16.44;34.66
6851;BME280;3464;42.728;23.296;2023-11-19T09:17:47;95423.34;;;15.75;35.61
6851;BME280;3464;42.728;23.296;2023-11-19T09:20:15;95437.45;;;15.58;35.71
6851;BME280;3464;42.728;23.296;2023-11-19T09:22:42;95440.95;;;15.94;35.39
6851;BME280;3464;42.728;23.296;2023-11-19T09:25:11;95445.32;;;15.78;35.18
6851;BME280;3464;42.728;23.296;2023-11-19T09:27:43;95454.69;;;15.05;36.27
6851;BME280;3464;42.728;23.296;2023-11-19T09:30:11;95454.05;;;15.46;35.70
6851;BME280;3464;42.728;23.296;2023-11-19T09:32:44;95439.70;;;15.36;35.84
6851;BME280;3464;42.728;23.296;2023-11-19T09:35:15;95430.97;;;15.73;35.78
6851;BME280;3464;42.728;23.296;2023-11-19T09:37:43;95414.95;;;16.12;34.84
6851;BME280;3464;42.728;23.296;2023-11-19T09:40:10;95410.21;;;16.22;34.47
6851;BME280;3464;42.728;23.296;2023-11-19T09:42:45;95405.72;;;16.46;34.23
6851;BME280;3464;42.728;23.296;2023-11-19T09:45:15;95405.84;;;15.93;34.91
6851;BME280;3464;42.728;23.296;2023-11-19T09:47:50;95402.36;;;16.02;34.82
6851;BME280;3464;42.728;23.296;2023-11-19T09:50:18;95388.70;;;16.13;34.75
6851;BME280;3464;42.728;23.296;2023-11-19T09:52:45;95375.48;;;15.83;34.95
6851;BME280;3464;42.728;23.296;2023-11-19T09:55:11;95375.26;;;16.39;34.43
6851;BME280;3464;42.728;23.296;2023-11-19T09:57:39;95385.31;;;16.51;34.27
6851;BME280;3464;42.728;23.296;2023-11-19T10:00:06;95378.77;;;16.66;34.03
6851;BME280;3464;42.728;23.296;2023-11-19T10:02:34;95376.55;;;16.73;33.30
6851;BME280;3464;42.728;23.296;2023-11-19T10:05:04;95378.63;;;16.41;34.01
6851;BME280;3464;42.728;23.296;2023-11-19T10:07:28;95375.67;;;16.77;33.96
6851;BME280;3464;42.728;23.296;2023-11-19T10:09:56;95372.90;;;16.25;34.67
6851;BME280;3464;42.728;23.296;2023-11-19T10:12:22;95371.92;;;16.73;34.28
6851;BME280;3464;42.728;23.296;2023-11-19T10:14:49;95370.22;;;17.83;32.95
6851;BME280;3464;42.728;23.296;2023-11-19T10:17:16;95386.94;;;17.47;33.11
6851;BME280;3464;42.728;23.296;2023-11-19T10:19:42;95388.67;;;15.76;35.04
6851;BME280;3464;42.728;23.296;2023-11-19T10:22:09;95389.10;;;16.15;34.84
6851;BME280;3464;42.728;23.296;2023-11-19T10:24:36;95381.23;;;17.04;33.85
6851;BME280;3464;42.728;23.296;2023-11-19T10:27:03;95374.67;;;17.71;33.16
6851;BME280;3464;42.728;23.296;2023-11-19T10:29:29;95365.90;;;17.87;32.86
6851;BME280;3464;42.728;23.296;2023-11-19T10:31:56;95357.13;;;18.01;32.82
6851;BME280;3464;42.728;23.296;2023-11-19T10:34:26;95363.62;;;16.90;33.20
6851;BME280;3464;42.728;23.296;2023-11-19T10:36:52;95360.62;;;16.93;33.86
6851;BME280;3464;42.728;23.296;2023-11-19T10:39:19;95363.42;;;17.32;33.28
6851;BME280;3464;42.728;23.296;2023-11-19T10:41:45;95365.41;;;16.84;33.53
6851;BME280;3464;42.728;23.296;2023-11-19T10:44:12;95362.50;;;17.87;32.49
6851;BME280;3464;42.728;23.296;2023-11-19T10:46:40;95357.88;;;17.61;32.48
6851;BME280;3464;42.728;23.296;2023-11-19T10:49:07;95364.47;;;18.17;32.03
6851;BME280;3464;42.728;23.296;2023-11-19T10:51:34;95361.30;;;18.06;32.09
6851;BME280;3464;42.728;23.296;2023-11-19T10:54:03;95362.83;;;18.14;31.96
6851;BME280;3464;42.728;23.296;2023-11-19T10:56:29;95367.91;;;17.92;32.65
6851;BME280;3464;42.728;23.296;2023-11-19T10:58:55;95359.30;;;17.24;32.90
6851;BME280;3464;42.728;23.296;2023-11-19T11:01:26;95354.64;;;17.98;32.13
6851;BME280;3464;42.728;23.296;2023-11-19T11:03:52;95345.22;;;18.46;31.66
6851;BME280;3464;42.728;23.296;2023-11-19T11:06:19;95331.92;;;17.65;32.50
6851;BME280;3464;42.728;23.296;2023-11-19T11:08:46;95331.13;;;16.50;33.71
6851;BME280;3464;42.728;23.296;2023-11-19T11:11:13;95335.50;;;17.01;33.27
6851;BME280;3464;42.728;23.296;2023-11-19T11:13:40;95327.83;;;16.06;34.66
6851;BME280;3464;42.728;23.296;2023-11-19T11:16:06;95333.62;;;16.55;34.28
6851;BME280;3464;42.728;23.296;2023-11-19T11:18:33;95314.92;;;17.15;33.81
6851;BME280;3464;42.728;23.296;2023-11-19T11:21:02;95328.23;;;17.05;33.38
6851;BME280;3464;42.728;23.296;2023-11-19T11:23:52;95321.16;;;17.22;33.21
6851;BME280;3464;42.728;23.296;2023-11-19T11:35:39;95339.02;;;17.19;33.45
6851;BME280;3464;42.728;23.296;2023-11-19T11:38:03;95324.23;;;16.88;33.65
6851;BME280;3464;42.728;23.296;2023-11-19T11:40:28;95320.45;;;16.56;34.03
6851;BME280;3464;42.728;23.296;2023-11-19T11:42:55;95317.11;;;16.83;33.74
6851;BME280;3464;42.728;23.296;2023-11-19T11:45:34;95307.31;;;17.14;33.41
6851;BME280;3464;42.728;23.296;2023-11-19T11:48:08;95308.55;;;17.43;33.24
6851;BME280;3464;42.728;23.296;2023-11-19T11:50:34;95312.80;;;17.43;33.57
6851;BME280;3464;42.728;23.296;2023-11-19T11:53:17;95313.44;;;16.40;34.72
6851;BME280;3464;42.728;23.296;2023-11-19T11:55:57;95320.99;;;16.78;34.23
6851;BME280;3464;42.728;23.296;2023-11-19T11:58:28;95319.58;;;18.32;33.02
6851;BME280;3464;42.728;23.296;2023-11-19T12:00:54;95323.88;;;17.37;32.74
6851;BME280;3464;42.728;23.296;2023-11-19T12:03:26;95320.12;;;17.34;32.93
6851;BME280;3464;42.728;23.296;2023-11-19T12:05:50;95315.91;;;17.59;32.82
6851;BME280;3464;42.728;23.296;2023-11-19T12:08:22;95304.75;;;17.39;32.89
6851;BME280;3464;42.728;23.296;2023-11-19T12:10:51;95303.73;;;17.51;32.83
6851;BME280;3464;42.728;23.296;2023-11-19T12:13:18;95294.73;;;17.32;33.31
6851;BME280;3464;42.728;23.296;2023-11-19T12:18:38;95291.85;;;17.25;33.47
6851;BME280;3464;42.728;23.296;2023-11-19T12:21:04;95298.75;;;16.91;33.56
6851;BME280;3464;42.728;23.296;2023-11-19T12:23:31;95285.11;;;17.71;32.99
6851;BME280;3464;42.728;23.296;2023-11-19T12:26:04;95276.71;;;17.44;33.27
6851;BME280;3464;42.728;23.296;2023-11-19T12:28:36;95280.80;;;17.97;32.31
6851;BME280;3464;42.728;23.296;2023-11-19T12:31:08;95293.72;;;16.27;34.29
6851;BME280;3464;42.728;23.296;2023-11-19T12:33:35;95285.33;;;16.21;34.88
6851;BME280;3464;42.728;23.296;2023-11-19T12:36:02;95268.77;;;16.85;34.08
6851;BME280;3464;42.728;23.296;2023-11-19T12:38:28;95273.25;;;16.69;34.34
6851;BME280;3464;42.728;23.296;2023-11-19T12:41:06;95268.48;;;17.28;33.66
6851;BME280;3464;42.728;23.296;2023-11-19T12:43:34;95262.29;;;16.02;35.14
6851;BME280;3464;42.728;23.296;2023-11-19T12:46:00;95264.94;;;15.56;35.63
6851;BME280;3464;42.728;23.296;2023-11-19T12:48:27;95262.41;;;16.25;34.84
6851;BME280;3464;42.728;23.296;2023-11-19T12:50:56;95260.72;;;16.26;34.80
6851;BME280;3464;42.728;23.296;2023-11-19T12:53:22;95260.33;;;16.22;35.10
6851;BME280;3464;42.728;23.296;2023-11-19T12:55:49;95263.16;;;16.00;35.07
6851;BME280;3464;42.728;23.296;2023-11-19T12:58:35;95266.02;;;16.41;34.78
6851;BME280;3464;42.728;23.296;2023-11-19T13:01:04;95247.61;;;16.57;34.78
6851;BME280;3464;42.728;23.296;2023-11-19T13:03:34;95243.86;;;16.19;34.94
6851;BME280;3464;42.728;23.296;2023-11-19T13:06:06;95247.86;;;15.71;36.18
6851;BME280;3464;42.728;23.296;2023-11-19T13:08:36;95243.75;;;17.12;34.32
6851;BME280;3464;42.728;23.296;2023-11-19T13:11:02;95242.28;;;16.73;34.69
6851;BME280;3464;42.728;23.296;2023-11-19T13:13:29;95240.41;;;16.23;35.34
6851;BME280;3464;42.728;23.296;2023-11-19T13:16:02;95246.28;;;15.96;35.85
6851;BME280;3464;42.728;23.296;2023-11-19T13:18:28;95245.23;;;15.40;36.62
6851;BME280;3464;42.728;23.296;2023-11-19T13:20:55;95233.48;;;16.06;35.88
6851;BME280;3464;42.728;23.296;2023-11-19T13:23:27;95226.67;;;15.73;36.22